createdAt,value
2018-12-01T00:00:20.781Z,28.02
2018-12-01T00:02:48.824Z,27.90
2018-12-01T00:05:16.872Z,26.42
2018-12-01T00:07:44.924Z,23.80
2018-12-01T00:10:12.980Z,22.90
2018-12-01T00:12:41.046Z,26.33
2018-12-01T00:15:12.404Z,22.65
2018-12-01T00:17:40.459Z,23.87
2018-12-01T00:20:11.726Z,23.12
2018-12-01T00:22:39.762Z,28.97
2018-12-01T00:25:08.485Z,32.45
2018-12-01T00:27:36.534Z,40.43
2018-12-01T00:30:10.350Z,42.70
2018-12-01T00:32:38.415Z,34.40
2018-12-01T00:35:07.739Z,28.65
2018-12-01T00:37:35.766Z,28.42
2018-12-01T00:40:04.996Z,25.62
2018-12-01T00:42:33.034Z,26.62
2018-12-01T00:45:01.070Z,26.75
2018-12-01T00:47:29.103Z,24.70
2018-12-01T00:49:57.154Z,27.30
2018-12-01T00:52:25.200Z,28.13
2018-12-01T00:54:53.229Z,29.05
2018-12-01T00:57:21.260Z,30.27
2018-12-01T00:59:49.302Z,28.10
2018-12-01T01:02:22.743Z,27.30
2018-12-01T01:04:50.807Z,25.55
2018-12-01T01:07:18.837Z,25.77
2018-12-01T01:09:46.871Z,27.00
2018-12-01T01:12:14.902Z,25.50
2018-12-01T01:14:42.946Z,27.23
2018-12-01T01:17:10.979Z,25.32
2018-12-01T01:19:39.017Z,26.23
2018-12-01T01:22:07.049Z,30.17
2018-12-01T01:24:35.078Z,30.02
2018-12-01T01:27:03.121Z,27.35
2018-12-01T01:29:31.176Z,29.52
2018-12-01T01:31:59.210Z,26.80
2018-12-01T01:34:27.259Z,26.35
2018-12-01T01:36:55.287Z,29.55
2018-12-01T01:39:23.322Z,32.23
2018-12-01T01:41:51.362Z,31.75
2018-12-01T01:44:19.396Z,33.48
2018-12-01T01:46:47.422Z,31.27
2018-12-01T01:49:15.442Z,30.77
2018-12-01T01:51:43.505Z,29.30
2018-12-01T01:54:11.542Z,30.53
2018-12-01T01:56:39.598Z,29.10
2018-12-01T01:59:07.628Z,28.02
2018-12-01T02:01:35.687Z,29.60
2018-12-01T02:04:03.704Z,28.60
2018-12-01T02:06:31.730Z,35.35
2018-12-01T02:08:59.783Z,32.80
2018-12-01T02:11:27.818Z,34.08
2018-12-01T02:13:55.875Z,35.20
2018-12-01T02:16:24.511Z,34.13
2018-12-01T02:18:51.962Z,28.62
2018-12-01T02:21:20.011Z,30.50
2018-12-01T02:23:48.054Z,30.43
2018-12-01T02:26:16.118Z,31.53
2018-12-01T02:28:44.146Z,33.55
2018-12-01T02:31:12.184Z,32.50
2018-12-01T02:33:40.212Z,33.50
2018-12-01T02:36:08.253Z,33.78
2018-12-01T02:38:36.289Z,36.65
2018-12-01T02:41:04.359Z,32.38
2018-12-01T02:43:32.388Z,37.70
2018-12-01T02:46:11.871Z,33.53
2018-12-01T02:48:39.939Z,31.68
2018-12-01T02:51:07.971Z,34.03
2018-12-01T02:53:36.028Z,29.60
2018-12-01T02:56:04.053Z,32.40
2018-12-01T02:58:32.123Z,33.98
2018-12-01T03:01:00.151Z,31.40
2018-12-01T03:03:28.194Z,33.02
2018-12-01T03:05:56.231Z,33.98
2018-12-01T03:08:24.286Z,33.15
2018-12-01T03:10:52.344Z,30.77
2018-12-01T03:13:20.383Z,34.75
2018-12-01T03:15:48.423Z,34.15
2018-12-01T03:18:16.473Z,33.58
2018-12-01T03:20:44.565Z,35.40
2018-12-01T03:23:12.578Z,35.38
2018-12-01T03:25:40.630Z,35.43
2018-12-01T03:28:08.684Z,33.17
2018-12-01T03:30:36.739Z,39.33
2018-12-01T03:33:04.788Z,37.80
2018-12-01T03:35:32.864Z,34.23
2018-12-01T03:38:00.926Z,36.10
2018-12-01T03:40:33.223Z,36.28
2018-12-01T03:43:01.270Z,38.25
2018-12-01T03:45:29.319Z,40.58
2018-12-01T03:47:57.365Z,33.60
2018-12-01T03:50:25.495Z,42.23
2018-12-01T03:52:54.860Z,34.20
2018-12-01T03:55:31.025Z,37.10
2018-12-01T03:57:59.236Z,40.83
2018-12-01T04:00:34.118Z,39.10
2018-12-01T04:03:02.852Z,40.05
2018-12-01T04:05:31.227Z,40.10
2018-12-01T04:07:59.263Z,33.13
2018-12-01T04:10:27.316Z,37.58
2018-12-01T04:12:55.610Z,37.33
2018-12-01T04:15:23.713Z,36.50
2018-12-01T04:17:51.770Z,39.73
2018-12-01T04:20:19.839Z,38.67
2018-12-01T04:22:47.935Z,41.73
2018-12-01T04:25:15.993Z,38.57
2018-12-01T04:27:44.038Z,42.78
2018-12-01T04:30:17.357Z,45.52
2018-12-01T04:32:45.398Z,49.15
2018-12-01T04:35:17.248Z,41.25
2018-12-01T04:37:46.377Z,44.77
2018-12-01T04:40:14.424Z,45.00
2018-12-01T04:42:42.825Z,47.88
2018-12-01T04:45:10.873Z,46.48
2018-12-01T04:47:39.065Z,42.78
2018-12-01T04:50:08.912Z,49.13
2018-12-01T04:52:36.967Z,52.70
2018-12-01T04:55:06.692Z,49.55
2018-12-01T04:57:34.742Z,54.08
2018-12-01T05:00:02.811Z,52.60
2018-12-01T05:02:30.842Z,51.58
2018-12-01T05:04:58.902Z,51.90
2018-12-01T05:07:26.950Z,53.52
2018-12-01T05:09:55.013Z,52.35
2018-12-01T05:12:23.058Z,50.88
2018-12-01T05:14:51.114Z,50.73
2018-12-01T05:17:19.177Z,54.15
2018-12-01T05:19:47.236Z,50.40
2018-12-01T05:22:15.291Z,57.15
2018-12-01T05:24:43.335Z,54.27
2018-12-01T05:27:11.375Z,52.70
2018-12-01T05:29:39.445Z,52.75
2018-12-01T05:32:07.489Z,54.38
2018-12-01T05:34:35.522Z,55.28
2018-12-01T05:37:03.579Z,48.33
2018-12-01T05:39:31.624Z,51.77
2018-12-01T05:41:59.651Z,50.83
2018-12-01T05:44:27.695Z,49.60
2018-12-01T05:46:55.743Z,48.27
2018-12-01T05:49:23.770Z,48.08
2018-12-01T05:51:51.826Z,52.67
2018-12-01T05:54:19.859Z,50.90
2018-12-01T05:56:47.899Z,50.30
2018-12-01T05:59:15.938Z,46.40
2018-12-01T06:01:43.970Z,48.95
2018-12-01T06:04:12.027Z,46.83
2018-12-01T06:06:40.090Z,51.05
2018-12-01T06:09:08.618Z,49.48
2018-12-01T06:11:36.634Z,50.47
2018-12-01T06:14:04.774Z,48.92
2018-12-01T06:16:32.834Z,51.65
2018-12-01T06:19:00.889Z,50.15
2018-12-01T06:21:28.935Z,53.90
2018-12-01T06:23:56.985Z,48.80
2018-12-01T06:26:25.026Z,59.77
2018-12-01T06:28:53.062Z,55.43
2018-12-01T06:31:21.094Z,56.28
2018-12-01T06:33:49.127Z,56.20
2018-12-01T06:36:17.182Z,52.48
2018-12-01T06:38:45.236Z,53.15
2018-12-01T06:41:13.295Z,55.67
2018-12-01T06:43:41.350Z,52.83
2018-12-01T06:46:09.416Z,52.08
2018-12-01T06:48:37.459Z,52.13
2018-12-01T06:51:05.530Z,51.30
2018-12-01T06:53:33.573Z,50.67
2018-12-01T06:56:01.617Z,55.43
2018-12-01T06:58:29.655Z,54.48
2018-12-01T07:00:57.710Z,53.52
2018-12-01T07:03:25.766Z,57.95
2018-12-01T07:05:53.802Z,49.38
2018-12-01T07:08:21.862Z,52.23
2018-12-01T07:10:49.899Z,50.95
2018-12-01T07:13:17.962Z,55.10
2018-12-01T07:15:46.954Z,55.33
2018-12-01T07:18:25.366Z,56.18
2018-12-01T07:20:53.408Z,56.92
2018-12-01T07:23:21.443Z,55.40
2018-12-01T07:25:49.491Z,54.25
2018-12-01T07:28:17.546Z,51.42
2018-12-01T07:30:45.574Z,52.47
2018-12-01T07:33:13.633Z,49.33
2018-12-01T07:35:41.665Z,51.68
2018-12-01T07:38:09.718Z,49.75
2018-12-01T07:40:37.834Z,45.78
2018-12-01T07:43:05.893Z,45.33
2018-12-01T07:45:33.942Z,48.08
2018-12-01T07:48:02.009Z,42.88
2018-12-01T07:50:30.045Z,42.93
2018-12-01T07:52:58.088Z,40.00
2018-12-01T07:55:26.147Z,42.98
2018-12-01T07:57:54.198Z,43.58
2018-12-01T08:00:22.229Z,44.42
2018-12-01T08:02:50.659Z,43.68
2018-12-01T08:05:19.034Z,46.75
2018-12-01T08:07:47.085Z,38.42
2018-12-01T08:10:15.816Z,39.48
2018-12-01T08:12:43.942Z,38.67
2018-12-01T08:15:14.754Z,39.63
2018-12-01T08:17:42.874Z,38.83
2018-12-01T08:20:12.014Z,37.05
2018-12-01T08:22:40.075Z,32.58
2018-12-01T08:25:09.795Z,36.68
2018-12-01T08:27:37.890Z,32.23
2018-12-01T08:30:14.232Z,33.33
2018-12-01T08:32:43.077Z,32.13
2018-12-01T08:35:11.124Z,29.50
2018-12-01T08:37:39.178Z,34.43
2018-12-01T08:40:10.187Z,33.15
2018-12-01T08:42:38.238Z,34.13
2018-12-01T08:45:08.579Z,34.00
2018-12-01T08:47:36.754Z,31.10
2018-12-01T08:50:09.729Z,33.35
2018-12-01T08:52:38.030Z,35.75
2018-12-01T08:55:07.728Z,34.83
2018-12-01T08:57:35.806Z,30.12
2018-12-01T09:00:06.443Z,29.82
2018-12-01T09:02:34.499Z,27.62
2018-12-01T09:05:02.535Z,29.65
2018-12-01T09:07:30.611Z,32.70
2018-12-01T09:09:58.691Z,30.67
2018-12-01T09:12:26.755Z,31.90
2018-12-01T09:14:54.799Z,36.88
2018-12-01T09:17:22.843Z,30.90
2018-12-01T09:19:50.883Z,31.12
2018-12-01T09:22:18.983Z,32.67
2018-12-01T09:24:47.042Z,33.78
2018-12-01T09:27:15.087Z,29.97
2018-12-01T09:29:43.138Z,31.57
2018-12-01T09:32:11.171Z,33.02
2018-12-01T09:34:39.219Z,33.15
2018-12-01T09:37:07.271Z,32.05
2018-12-01T09:39:35.303Z,35.43
2018-12-01T09:42:03.354Z,33.33
2018-12-01T09:44:31.379Z,32.48
2018-12-01T09:46:59.419Z,29.57
2018-12-01T09:49:27.471Z,30.88
2018-12-01T09:51:55.506Z,33.70
2018-12-01T09:54:23.579Z,31.57
2018-12-01T09:56:51.618Z,35.28
2018-12-01T09:59:19.678Z,31.40
2018-12-01T10:01:47.731Z,31.12
2018-12-01T10:04:15.818Z,29.27
2018-12-01T10:06:43.884Z,29.75
2018-12-01T10:09:11.923Z,38.08
2018-12-01T10:11:39.968Z,30.02
2018-12-01T10:14:08.010Z,28.35
2018-12-01T10:16:36.054Z,29.63
2018-12-01T10:19:04.126Z,29.05
2018-12-01T10:21:32.175Z,29.77
2018-12-01T10:24:00.217Z,29.20
2018-12-01T10:26:28.305Z,29.60
2018-12-01T10:28:56.352Z,27.05
2018-12-01T10:31:24.458Z,26.20
2018-12-01T10:33:52.495Z,25.13
2018-12-01T10:36:20.555Z,26.40
2018-12-01T10:38:48.603Z,28.70
2018-12-01T10:41:16.640Z,25.32
2018-12-01T10:43:44.686Z,26.20
2018-12-01T10:46:12.758Z,24.87
2018-12-01T10:48:40.812Z,29.65
2018-12-01T10:51:08.863Z,27.35
2018-12-01T10:53:36.918Z,26.23
2018-12-01T10:56:04.986Z,24.10
2018-12-01T10:58:33.048Z,24.15
2018-12-01T11:01:06.359Z,28.27
2018-12-01T11:03:44.705Z,29.10
2018-12-01T11:06:14.122Z,24.90
2018-12-01T11:08:42.223Z,26.05
2018-12-01T11:11:10.311Z,23.98
2018-12-01T11:13:38.325Z,26.77
2018-12-01T11:16:07.211Z,26.62
2018-12-01T11:18:35.588Z,27.00
2018-12-01T11:21:03.626Z,25.40
2018-12-01T11:23:31.708Z,26.17
2018-12-01T11:25:59.759Z,30.12
2018-12-01T11:28:27.936Z,27.13
2018-12-01T11:30:56.001Z,25.65
2018-12-01T11:33:24.022Z,28.38
2018-12-01T11:35:52.055Z,27.20
2018-12-01T11:38:20.118Z,25.70
2018-12-01T11:40:48.158Z,24.93
2018-12-01T11:43:16.203Z,29.37
2018-12-01T11:45:44.246Z,28.05
2018-12-01T11:48:12.287Z,26.10
2018-12-01T11:50:40.562Z,25.92
2018-12-01T11:53:08.591Z,27.67
2018-12-01T11:55:36.629Z,27.27
2018-12-01T11:58:04.716Z,27.22
2018-12-01T12:00:32.774Z,27.03
2018-12-01T12:03:00.847Z,27.25
2018-12-01T12:05:28.903Z,26.65
2018-12-01T12:08:08.408Z,25.32
2018-12-01T12:10:36.456Z,25.27
2018-12-01T12:13:04.543Z,26.25
2018-12-01T12:15:32.586Z,27.65
2018-12-01T12:18:01.676Z,26.52
2018-12-01T12:20:30.471Z,29.95
2018-12-01T12:22:58.553Z,25.52
2018-12-01T12:25:26.668Z,25.10
2018-12-01T12:27:54.719Z,24.52
2018-12-01T12:30:25.968Z,24.30
2018-12-01T12:32:50.967Z,30.12
2018-12-01T12:35:19.054Z,26.82
2018-12-01T12:37:47.106Z,27.25
2018-12-01T12:40:16.370Z,28.17
2018-12-01T12:42:44.427Z,26.80
2018-12-01T12:45:13.531Z,27.80
2018-12-01T12:47:41.554Z,26.33
2018-12-01T12:50:18.446Z,25.08
2018-12-01T12:52:49.526Z,27.82
2018-12-01T12:55:20.269Z,26.95
2018-12-01T12:57:48.314Z,24.80
2018-12-01T13:00:18.231Z,26.00
2018-12-01T13:02:51.562Z,25.65
2018-12-01T13:05:21.958Z,25.80
2018-12-01T13:07:49.993Z,26.63
2018-12-01T13:10:20.660Z,29.37
2018-12-01T13:12:48.819Z,27.17
2018-12-01T13:15:17.753Z,25.90
2018-12-01T13:17:46.126Z,24.80
2018-12-01T13:20:17.236Z,24.43
2018-12-01T13:22:46.494Z,28.57
2018-12-01T13:25:15.344Z,25.30
2018-12-01T13:27:45.094Z,24.67
2018-12-01T13:30:18.550Z,23.92
2018-12-01T13:32:46.619Z,23.60
2018-12-01T13:35:14.704Z,24.10
2018-12-01T13:37:42.726Z,28.15
2018-12-01T13:40:11.938Z,22.20
2018-12-01T13:42:39.979Z,24.55
2018-12-01T13:45:12.279Z,22.17
2018-12-01T13:47:40.342Z,26.37
2018-12-01T13:50:12.529Z,22.60
2018-12-01T13:52:40.690Z,27.82
2018-12-01T13:55:09.379Z,23.38
2018-12-01T13:57:37.442Z,21.60
2018-12-01T14:00:36.670Z,21.80
2018-12-01T14:03:05.030Z,20.82
2018-12-01T14:05:33.101Z,21.30
2018-12-01T14:08:01.142Z,21.35
2018-12-01T14:10:30.259Z,24.65
2018-12-01T14:13:02.670Z,32.38
2018-12-01T14:15:30.737Z,26.15
2018-12-01T14:17:58.795Z,25.50
2018-12-01T14:20:26.851Z,27.98
2018-12-01T14:22:54.965Z,24.67
2018-12-01T14:25:23.079Z,24.63
2018-12-01T14:27:53.420Z,19.30
2018-12-01T14:30:21.526Z,19.15
2018-12-01T14:32:49.690Z,17.20
2018-12-01T14:35:21.415Z,17.42
2018-12-01T14:37:50.932Z,24.05
2018-12-01T14:40:18.971Z,18.67
2018-12-01T14:42:47.031Z,20.25
2018-12-01T14:45:17.015Z,20.75
2018-12-01T14:47:45.078Z,19.27
2018-12-01T14:50:14.980Z,15.40
2018-12-01T14:52:43.669Z,19.20
2018-12-01T14:55:14.701Z,20.88
2018-12-01T14:57:42.761Z,23.75
2018-12-01T15:00:20.699Z,26.85
2018-12-01T15:02:49.352Z,26.37
2018-12-01T15:05:17.404Z,45.90
2018-12-01T15:07:46.101Z,23.55
2018-12-01T15:10:16.154Z,31.48
2018-12-01T15:12:44.213Z,43.25
2018-12-01T15:15:13.381Z,24.67
2018-12-01T15:17:41.579Z,31.05
2018-12-01T15:20:14.867Z,27.85
2018-12-01T15:22:43.418Z,20.25
2018-12-01T15:25:14.669Z,20.45
2018-12-01T15:27:43.760Z,19.95
2018-12-01T15:30:13.939Z,16.00
2018-12-01T15:32:42.787Z,24.63
2018-12-01T15:35:12.355Z,18.62
2018-12-01T15:37:41.170Z,25.70
2018-12-01T15:40:12.227Z,26.10
2018-12-01T15:42:40.282Z,22.07
2018-12-01T15:45:09.999Z,25.37
2018-12-01T15:47:38.102Z,18.52
2018-12-01T15:50:09.132Z,18.80
2018-12-01T15:52:37.482Z,19.90
2018-12-01T15:55:09.359Z,22.32
2018-12-01T15:57:37.422Z,19.50
2018-12-01T16:00:12.399Z,22.42
2018-12-01T16:02:40.456Z,21.05
2018-12-01T16:05:09.315Z,20.95
2018-12-01T16:07:37.474Z,18.20
2018-12-01T16:10:07.933Z,18.17
2018-12-01T16:12:35.966Z,18.52
2018-12-01T16:15:05.590Z,18.07
2018-12-01T16:17:33.636Z,16.17
2018-12-01T16:20:01.710Z,18.65
2018-12-01T16:22:29.778Z,19.40
2018-12-01T16:24:57.839Z,21.00
2018-12-01T16:27:25.899Z,22.42
2018-12-01T16:29:53.966Z,19.75
2018-12-01T16:32:22.048Z,18.75
2018-12-01T16:34:50.089Z,19.95
2018-12-01T16:37:18.179Z,18.02
2018-12-01T16:39:46.245Z,22.13
2018-12-01T16:42:14.310Z,16.57
2018-12-01T16:44:42.378Z,19.13
2018-12-01T16:47:10.450Z,17.73
2018-12-01T16:49:38.519Z,20.10
2018-12-01T16:52:06.907Z,22.10
2018-12-01T16:54:34.966Z,20.65
2018-12-01T16:57:03.039Z,19.35
2018-12-01T16:59:31.098Z,37.50
2018-12-01T17:01:59.145Z,25.48
2018-12-01T17:04:27.190Z,25.08
2018-12-01T17:06:55.255Z,26.30
2018-12-01T17:09:23.691Z,21.15
2018-12-01T17:11:51.766Z,21.65
2018-12-01T17:14:19.816Z,22.48
2018-12-01T17:16:47.854Z,28.90
2018-12-01T17:19:15.902Z,20.40
2018-12-01T17:21:43.947Z,21.20
2018-12-01T17:24:12.034Z,22.42
2018-12-01T17:26:40.072Z,25.97
2018-12-01T17:29:08.175Z,26.48
2018-12-01T17:31:36.260Z,29.42
2018-12-01T17:34:04.297Z,29.67
2018-12-01T17:36:32.326Z,28.40
2018-12-01T17:39:00.385Z,23.75
2018-12-01T17:41:30.099Z,16.97
2018-12-01T17:44:08.770Z,19.77
2018-12-01T17:46:36.843Z,16.90
2018-12-01T17:49:05.801Z,19.48
2018-12-01T17:51:33.868Z,15.75
2018-12-01T17:54:08.497Z,17.80
2018-12-01T17:56:36.575Z,16.27
2018-12-01T17:59:04.939Z,15.55
2018-12-01T18:01:35.582Z,22.55
2018-12-01T18:04:03.637Z,19.75
2018-12-01T18:06:31.698Z,14.00
2018-12-01T18:08:59.759Z,15.90
2018-12-01T18:11:29.625Z,16.00
2018-12-01T18:13:55.841Z,19.92
2018-12-01T18:16:23.882Z,19.77
2018-12-01T18:18:51.938Z,18.67
2018-12-01T18:21:19.955Z,17.57
2018-12-01T18:23:47.996Z,16.15
2018-12-01T18:26:16.052Z,20.88
2018-12-01T18:28:47.223Z,24.00
2018-12-01T18:31:17.452Z,22.65
2018-12-01T18:33:47.466Z,23.25
2018-12-01T18:36:15.562Z,27.48
2018-12-01T18:38:45.646Z,28.00
2018-12-01T18:41:13.785Z,25.80
2018-12-01T18:43:41.815Z,24.65
2018-12-01T18:46:12.617Z,22.90
2018-12-01T18:48:40.693Z,19.23
2018-12-01T18:51:08.714Z,26.65
2018-12-01T18:53:36.778Z,19.48
2018-12-01T18:56:05.723Z,17.12
2018-12-01T18:58:33.766Z,14.83
2018-12-01T19:01:01.806Z,14.18
2018-12-01T19:03:31.343Z,15.60
2018-12-01T19:05:59.399Z,15.23
2018-12-01T19:08:27.460Z,12.23
2018-12-01T19:10:55.554Z,12.13
2018-12-01T19:13:23.612Z,12.68
2018-12-01T19:15:51.647Z,12.98
2018-12-01T19:18:19.695Z,12.75
2018-12-01T19:20:47.786Z,12.33
2018-12-01T19:23:16.939Z,12.25
2018-12-01T19:25:46.359Z,11.43
2018-12-01T19:28:14.395Z,13.18
2018-12-01T19:30:42.431Z,13.25
2018-12-01T19:33:16.614Z,12.50
2018-12-01T19:35:45.402Z,12.03
2018-12-01T19:38:16.950Z,13.18
2018-12-01T19:40:45.302Z,13.58
2018-12-01T19:43:13.323Z,14.87
2018-12-01T19:45:41.350Z,15.23
2018-12-01T19:48:10.134Z,11.73
2018-12-01T19:50:41.214Z,13.18
2018-12-01T19:53:12.555Z,12.15
2018-12-01T19:55:41.808Z,15.75
2018-12-01T19:58:14.034Z,17.23
2018-12-01T20:00:43.806Z,13.83
2018-12-01T20:03:15.353Z,15.63
2018-12-01T20:05:43.392Z,11.65
2018-12-01T20:08:11.813Z,12.07
2018-12-01T20:10:50.433Z,15.05
2018-12-01T20:13:27.239Z,12.10
2018-12-01T20:15:58.662Z,13.88
2018-12-01T20:18:27.627Z,16.20
2018-12-01T20:20:55.705Z,13.80
2018-12-01T20:23:23.729Z,12.25
2018-12-01T20:25:52.014Z,13.83
2018-12-01T20:28:20.241Z,16.10
2018-12-01T20:30:49.434Z,14.03
2018-12-01T20:33:18.026Z,14.47
2018-12-01T20:36:32.748Z,14.20
2018-12-01T20:39:34.023Z,14.35
2018-12-01T20:42:02.058Z,16.52
2018-12-01T20:44:30.106Z,13.48
2018-12-01T20:46:58.146Z,16.48
2018-12-01T20:49:26.175Z,11.55
2018-12-01T20:51:54.203Z,16.60
2018-12-01T20:54:32.082Z,12.65
2018-12-01T20:57:03.734Z,14.00
2018-12-01T20:59:31.762Z,14.05
2018-12-01T21:01:59.788Z,14.83
2018-12-01T21:04:27.830Z,15.75
2018-12-01T21:06:55.856Z,13.40
2018-12-01T21:09:23.879Z,13.80
2018-12-01T21:11:51.899Z,12.05
2018-12-01T21:14:19.983Z,14.83
2018-12-01T21:16:48.047Z,13.48
2018-12-01T21:19:16.074Z,13.47
2018-12-01T21:21:44.127Z,12.65
2018-12-01T21:24:12.167Z,11.75
2018-12-01T21:26:40.203Z,11.30
2018-12-01T21:29:08.263Z,13.40
2018-12-01T21:31:36.295Z,15.63
2018-12-01T21:34:04.801Z,12.80
2018-12-01T21:36:32.851Z,11.28
2018-12-01T21:39:00.916Z,11.95
2018-12-01T21:41:28.930Z,13.38
2018-12-01T21:43:57.034Z,13.30
2018-12-01T21:46:25.102Z,11.83
2018-12-01T21:48:53.178Z,12.75
2018-12-01T21:51:21.211Z,11.13
2018-12-01T21:53:49.262Z,12.53
2018-12-01T21:56:17.302Z,12.88
2018-12-01T21:58:45.390Z,13.80
2018-12-01T22:01:13.442Z,12.03
2018-12-01T22:03:41.507Z,13.10
2018-12-01T22:06:09.550Z,9.75
2018-12-01T22:08:37.959Z,10.63
2018-12-01T22:11:07.000Z,11.73
2018-12-01T22:13:35.032Z,12.13
2018-12-01T22:16:03.094Z,13.08
2018-12-01T22:18:31.126Z,9.55
2018-12-01T22:20:59.180Z,9.95
2018-12-01T22:23:27.201Z,10.30
2018-12-01T22:25:55.226Z,10.90
2018-12-01T22:28:23.253Z,12.00
2018-12-01T22:30:52.155Z,14.18
2018-12-01T22:33:22.814Z,9.93
2018-12-01T22:35:50.868Z,15.95
2018-12-01T22:38:18.899Z,15.47
2018-12-01T22:40:47.162Z,10.98
2018-12-01T22:43:15.204Z,12.60
2018-12-01T22:45:43.210Z,10.15
2018-12-01T22:48:12.851Z,9.85
2018-12-01T22:50:42.486Z,9.15
2018-12-01T22:53:10.531Z,11.05
2018-12-01T22:55:39.772Z,12.70
2018-12-01T22:58:10.092Z,11.67
2018-12-01T23:00:42.683Z,11.50
2018-12-01T23:03:11.733Z,11.10
2018-12-01T23:05:39.838Z,11.80
2018-12-01T23:08:09.300Z,11.22
2018-12-01T23:10:37.339Z,15.15
2018-12-01T23:13:06.171Z,15.43
2018-12-01T23:15:34.270Z,15.63
2018-12-01T23:18:02.337Z,13.53
2018-12-01T23:20:30.357Z,14.65
2018-12-01T23:22:58.408Z,13.20
2018-12-01T23:25:26.467Z,16.37
2018-12-01T23:27:54.539Z,14.05
2018-12-01T23:30:24.118Z,11.77
2018-12-01T23:32:53.607Z,13.97
2018-12-01T23:35:21.650Z,12.25
2018-12-01T23:37:49.722Z,12.47
2018-12-01T23:40:17.822Z,12.33
2018-12-01T23:42:45.902Z,12.78
2018-12-01T23:45:15.802Z,12.65
2018-12-01T23:47:44.391Z,14.93
2018-12-01T23:50:13.567Z,12.50
2018-12-01T23:52:42.068Z,14.47
2018-12-01T23:55:11.159Z,15.13
2018-12-01T23:57:39.199Z,15.18
